| time (UTC) | temp F | wind direction | speed knots | gust knots | rain 1hr in | rain 24hr in | rain mn in | humidity % | barometer mb |
| 20260507180013 | 88 | 326 | 10.4 | 17.4 | 0.00 | 0.00 | 0.00 | 9 | 952.2 |
| 20260507174511 | 87 | 352 | 11.3 | 18.2 | 0.00 | 0.00 | 0.00 | 10 | 952.3 |
| 20260507173009 | 86 | 356 | 12.2 | 19.1 | 0.00 | 0.00 | 0.00 | 9 | 952.4 |
| 20260507171506 | 85 | 15 | 9.6 | 20.0 | 0.00 | 0.00 | 0.00 | 11 | 952.5 |
| 20260507170004 | 84 | 354 | 11.3 | 18.2 | 0.00 | 0.00 | 0.00 | 10 | 952.6 |
| 20260507164502 | 84 | 346 | 11.3 | 15.6 | 0.00 | 0.00 | 0.00 | 11 | 952.6 |
| 20260507163102 | 83 | 336 | 10.4 | 17.4 | 0.00 | 0.00 | 0.00 | 11 | 952.9 |
| 20260507161556 | 82 | 352 | 11.3 | 14.8 | 0.00 | 0.00 | 0.00 | 12 | 952.8 |
| 20260507160059 | 81 | 342 | 10.4 | 16.5 | 0.00 | 0.00 | 0.00 | 13 | 952.9 |
| 20260507154551 | 80 | 12 | 12.2 | 18.2 | 0.00 | 0.00 | 0.00 | 13 | 953.0 |
| 20260507153052 | 80 | 8.7 | 14.8 | 0.00 | 0.00 | 0.00 | 15 | 953.1 | |
| 20260507151544 | 79 | 9.6 | 17.4 | 0.00 | 0.00 | 0.00 | 16 | 953.2 | |
| 20260507150043 | 78 | 351 | 11.3 | 18.2 | 0.00 | 0.00 | 0.00 | 16 | 953.2 |
| 20260507144545 | 78 | 7.8 | 16.5 | 0.00 | 0.00 | 0.00 | 17 | 953.2 | |
| 20260507143050 | 77 | 2 | 8.7 | 13.9 | 0.00 | 0.00 | 0.00 | 18 | 953.2 |
| 20260507141535 | 77 | 355 | 7.0 | 12.2 | 0.00 | 0.00 | 0.00 | 21 | 953.3 |
| 20260507140039 | 75 | 29 | 0.0 | 3.5 | 0.00 | 0.00 | 0.00 | 25 | 953.1 |
| 20260507134531 | 73 | 72 | 0.0 | 0.9 | 0.00 | 0.00 | 0.00 | 26 | 953.1 |
| 20260507133034 | 71 | 84 | 0.0 | 0.9 | 0.00 | 0.00 | 0.00 | 28 | 953.1 |
| 20260507131528 | 70 | 87 | 0.0 | 1.7 | 0.00 | 0.00 | 0.00 | 28 | 952.9 |
| 20260507130027 | 70 | 86 | 0.0 | 0.9 | 0.00 | 0.00 | 0.00 | 29 | 952.9 |
| 20260507124526 | 70 | 86 | 0.0 | 0.9 | 0.00 | 0.00 | 0.00 | 29 | 952.7 |
| 20260507123032 | 68 | 78 | 0.0 | 3.5 | 0.00 | 0.00 | 0.00 | 30 | 952.7 |
| 20260507121522 | 70 | 79 | 0.9 | 2.6 | 0.00 | 0.00 | 0.00 | 30 | 952.7 |
| 20260507120022 | 70 | 82 | 0.9 | 5.2 | 0.00 | 0.00 | 0.00 | 30 | 952.7 |
| 20260507114521 | 69 | 86 | 2.6 | 4.3 | 0.00 | 0.00 | 0.00 | 30 | 952.6 |
| 20260507113030 | 70 | 77 | 0.0 | 2.6 | 0.00 | 0.00 | 0.00 | 29 | 952.5 |
| 20260507111522 | 71 | 80 | 1.7 | 3.5 | 0.00 | 0.00 | 0.00 | 29 | 952.4 |
| 20260507110017 | 71 | 67 | 0.0 | 0.0 | 0.00 | 0.00 | 0.00 | 28 | 952.5 |
| 20260507104514 | 72 | 68 | 0.0 | 0.0 | 0.00 | 0.00 | 0.00 | 28 | 952.5 |
| 20260507103015 | 72 | 68 | 0.0 | 0.9 | 0.00 | 0.00 | 0.00 | 28 | 952.5 |
| 20260507101515 | 72 | 79 | 0.0 | 3.5 | 0.00 | 0.00 | 0.00 | 27 | 952.5 |
| 20260507100016 | 72 | 87 | 1.7 | 3.5 | 0.00 | 0.00 | 0.00 | 26 | 952.5 |
| 20260507094510 | 72 | 79 | 0.9 | 5.2 | 0.00 | 0.00 | 0.00 | 26 | 952.6 |
| 20260507093018 | 73 | 93 | 0.9 | 3.5 | 0.00 | 0.00 | 0.00 | 26 | 952.5 |
| 20260507091506 | 73 | 90 | 0.0 | 0.0 | 0.00 | 0.00 | 0.00 | 25 | 952.5 |
| 20260507090006 | 74 | 83 | 0.0 | 0.9 | 0.00 | 0.00 | 0.00 | 25 | 952.5 |
| 20260507084504 | 74 | 81 | 0.0 | 0.0 | 0.00 | 0.00 | 0.00 | 25 | 952.5 |
| 20260507083004 | 74 | 109 | 0.0 | 0.9 | 0.00 | 0.00 | 0.00 | 25 | 952.5 |
| 20260507081502 | 74 | 199 | 0.0 | 6.1 | 0.00 | 0.00 | 0.00 | 25 | 952.6 |
| 20260507080135 | 74 | 88 | 4.3 | 7.0 | 0.00 | 0.00 | 0.00 | 25 | 952.4 |
| 20260507074657 | 75 | 79 | 3.5 | 6.1 | 0.00 | 0.00 | 0.00 | 25 | 952.4 |
| 20260507073101 | 76 | 88 | 1.7 | 4.3 | 0.00 | 0.00 | 0.00 | 26 | 952.3 |
| 20260507071601 | 76 | 92 | 1.7 | 6.1 | 0.00 | 0.00 | 0.00 | 25 | 952.3 |
| 20260507070050 | 76 | 101 | 1.7 | 7.0 | 0.00 | 0.00 | 0.00 | 25 | 952.2 |
| 20260507064553 | 77 | 104 | 3.5 | 7.0 | 0.00 | 0.00 | 0.00 | 24 | 952.1 |
| 20260507063051 | 76 | 98 | 3.5 | 6.1 | 0.00 | 0.00 | 0.00 | 24 | 951.9 |
| 20260507061547 | 77 | 162 | 0.0 | 4.3 | 0.00 | 0.00 | 0.00 | 23 | 951.8 |
| 20260507060047 | 77 | 112 | 0.0 | 0.0 | 0.00 | 0.00 | 0.00 | 22 | 951.6 |
| 20260507054552 | 78 | 91 | 1.7 | 5.2 | 0.00 | 0.00 | 0.00 | 22 | 951.5 |
| 20260507053048 | 78 | 102 | 3.5 | 5.2 | 0.00 | 0.00 | 0.00 | 22 | 951.3 |
| 20260507051544 | 79 | 80 | 3.5 | 6.1 | 0.00 | 0.00 | 0.00 | 22 | 951.3 |
| 20260507050043 | 78 | 85 | 1.7 | 6.1 | 0.00 | 0.00 | 0.00 | 22 | 951.2 |
| 20260507044543 | 79 | 88 | 1.7 | 6.1 | 0.00 | 0.00 | 0.00 | 21 | 951.1 |
| 20260507043043 | 80 | 2.6 | 4.3 | 0.00 | 0.00 | 0.00 | 21 | 951.1 | |
| 20260507041542 | 81 | 1.7 | 5.2 | 0.00 | 0.00 | 0.00 | 21 | 950.9 | |
| 20260507040053 | 81 | 2.6 | 7.0 | 0.00 | 0.00 | 0.00 | 20 | 950.7 | |
| 20260507034549 | 82 | 1.7 | 2.6 | 0.00 | 0.00 | 0.00 | 20 | 950.6 | |
| 20260507033043 | 83 | 294 | 0.0 | 0.0 | 0.00 | 0.00 | 0.00 | 19 | 950.4 |
| 20260507031539 | 85 | 314 | 0.0 | 0.0 | 0.00 | 0.00 | 0.00 | 19 | 950.2 |
| 20260507030039 | 85 | 314 | 0.0 | 0.0 | 0.00 | 0.00 | 0.00 | 18 | 950.0 |
| 20260507024538 | 86 | 314 | 0.0 | 1.7 | 0.00 | 0.00 | 0.00 | 18 | 949.8 |
| 20260507023038 | 86 | 313 | 3.5 | 6.1 | 0.00 | 0.00 | 0.00 | 18 | 949.7 |
| 20260507021536 | 87 | 312 | 1.7 | 4.3 | 0.00 | 0.00 | 0.00 | 18 | 949.7 |
| 20260507020036 | 88 | 326 | 1.7 | 6.1 | 0.00 | 0.00 | 0.00 | 17 | 949.7 |
| 20260507014536 | 88 | 346 | 3.5 | 7.0 | 0.00 | 0.00 | 0.00 | 17 | 949.7 |
| 20260507013038 | 88 | 350 | 2.6 | 11.3 | 0.00 | 0.00 | 0.00 | 17 | 949.7 |
| 20260507011539 | 88 | 4.3 | 7.0 | 0.00 | 0.00 | 0.00 | 17 | 949.8 | |
| 20260507010032 | 88 | 314 | 6.1 | 9.6 | 0.00 | 0.00 | 0.00 | 17 | 949.8 |
| 20260507004531 | 87 | 344 | 6.1 | 10.4 | 0.00 | 0.00 | 0.00 | 18 | 950.0 |
| 20260507003030 | 87 | 315 | 2.6 | 7.8 | 0.00 | 0.00 | 0.00 | 17 | 950.0 |
| 20260507001531 | 87 | 7.8 | 12.2 | 0.00 | 0.00 | 0.00 | 17 | 950.0 | |
| 20260507000029 | 87 | 344 | 7.8 | 14.8 | 0.00 | 0.00 | 0.00 | 17 | 950.0 |
| 20260506234533 | 87 | 319 | 11.3 | 15.6 | 0.00 | 0.00 | 0.00 | 17 | 949.9 |
| 20260506233026 | 87 | 10.4 | 14.8 | 0.00 | 0.00 | 0.00 | 17 | 950.2 | |
| 20260506231524 | 86 | 4.3 | 13.9 | 0.00 | 0.00 | 0.00 | 19 | 950.3 | |
| 20260506230021 | 86 | 291 | 6.1 | 12.2 | 0.00 | 0.00 | 0.00 | 20 | 950.4 |
| 20260506224525 | 86 | 316 | 7.0 | 11.3 | 0.00 | 0.00 | 0.00 | 20 | 950.7 |
| 20260506223017 | 85 | 306 | 9.6 | 14.8 | 0.00 | 0.00 | 0.00 | 20 | 951.0 |
| 20260506221516 | 84 | 274 | 7.0 | 12.2 | 0.00 | 0.00 | 0.00 | 22 | 951.2 |
| 20260506220015 | 85 | 331 | 7.0 | 11.3 | 0.00 | 0.00 | 0.00 | 22 | 951.5 |
| 20260506214513 | 84 | 287 | 2.6 | 8.7 | 0.00 | 0.00 | 0.00 | 21 | 951.7 |
| 20260506213019 | 83 | 149 | 3.5 | 11.3 | 0.00 | 0.00 | 0.00 | 22 | 952.0 |
| 20260506211513 | 83 | 13 | 1.7 | 8.7 | 0.00 | 0.00 | 0.00 | 22 | 952.2 |
| 20260506210010 | 83 | 145 | 0.0 | 7.8 | 0.00 | 0.00 | 0.00 | 22 | 952.4 |
| 20260506204506 | 81 | 295 | 0.0 | 5.2 | 0.00 | 0.00 | 0.00 | 23 | 952.6 |
| 20260506203004 | 81 | 139 | 3.5 | 8.7 | 0.00 | 0.00 | 0.00 | 24 | 952.7 |
| 20260506201503 | 80 | 238 | 1.7 | 11.3 | 0.00 | 0.00 | 0.00 | 24 | 952.8 |
| 20260506200003 | 80 | 245 | 5.2 | 9.6 | 0.00 | 0.00 | 0.00 | 25 | 953.0 |
| 20260506194600 | 79 | 205 | 3.5 | 8.7 | 0.00 | 0.00 | 0.00 | 25 | 953.3 |
| 20260506193058 | 79 | 219 | 7.0 | 13.0 | 0.00 | 0.00 | 0.00 | 26 | 953.3 |
| 20260506191604 | 79 | 245 | 7.8 | 12.2 | 0.00 | 0.00 | 0.00 | 27 | 953.5 |
| 20260506190058 | 78 | 239 | 1.7 | 10.4 | 0.00 | 0.00 | 0.00 | 28 | 953.7 |
| 20260506184600 | 77 | 231 | 2.6 | 10.4 | 0.00 | 0.00 | 0.00 | 28 | 953.8 |
| 20260506183058 | 76 | 200 | 5.2 | 12.2 | 0.00 | 0.00 | 0.00 | 29 | 954.1 |
| 20260506181556 | 76 | 231 | 3.5 | 14.8 | 0.00 | 0.00 | 0.00 | 29 | 954.2 |